Time;durP1;ratioP1;P1;durP2;ratioP2;P2;SDS_P1;SDS_P2;PMS_P1;PMS_P2;Temp;Humidity;BMP_temperature;BMP_pressure;BME280_temperature;BME280_humidity;BME280_pressure;Samples;Min_cycle;Max_cycle;Signal;HPM_P1;HPM_P2
2022/03/08 00:02:07;;;;;;;16.98;6.30;;;-0.90;92.10;;;;;;5055567;28;20041;-70
2022/03/08 00:04:33;;;;;;;12.48;6.45;;;-0.90;92.30;;;;;;5062367;28;20055;-67
2022/03/08 00:06:59;;;;;;;13.38;6.53;;;-0.90;92.10;;;;;;5047607;28;20048;-68
2022/03/08 00:09:24;;;;;;;13.25;6.72;;;-0.90;92.20;;;;;;5047268;28;20113;-68
2022/03/08 00:11:50;;;;;;;12.98;6.80;;;-0.70;93.70;;;;;;5030713;28;20465;-67
2022/03/08 00:14:15;;;;;;;13.05;6.80;;;-0.60;94.10;;;;;;5048637;28;20036;-67
2022/03/08 00:16:41;;;;;;;16.05;7.15;;;-0.70;92.80;;;;;;5046845;28;20602;-68
2022/03/08 00:19:06;;;;;;;12.73;6.72;;;-0.70;93.40;;;;;;5055463;28;20123;-67
2022/03/08 00:21:32;;;;;;;13.50;6.28;;;-0.70;93.40;;;;;;5062312;28;20135;-68
2022/03/08 00:23:58;;;;;;;11.13;6.10;;;-0.80;92.90;;;;;;5046099;28;20131;-68
2022/03/08 00:26:23;;;;;;;11.63;5.68;;;-0.90;92.50;;;;;;5046009;28;20041;-68
2022/03/08 00:28:49;;;;;;;10.80;6.18;;;-0.90;92.30;;;;;;5049219;28;20037;-68
2022/03/08 00:31:14;;;;;;;11.82;6.20;;;-1.00;92.20;;;;;;5049197;28;20037;-67
2022/03/08 00:33:41;;;;;;;13.13;6.10;;;-1.00;92.40;;;;;;5062759;28;20154;-68
2022/03/08 00:36:07;;;;;;;10.82;6.03;;;-1.10;92.30;;;;;;5069774;28;20045;-68
2022/03/08 00:38:33;;;;;;;12.43;6.55;;;-1.10;92.50;;;;;;5046588;28;20459;-68
2022/03/08 00:40:59;;;;;;;10.82;5.47;;;-1.10;92.60;;;;;;5058939;28;20114;-68
2022/03/08 00:43:24;;;;;;;11.20;6.13;;;-1.10;92.50;;;;;;5052110;28;20420;-68
2022/03/08 00:45:50;;;;;;;12.63;6.25;;;-1.20;92.60;;;;;;5049402;28;20051;-68
2022/03/08 00:48:16;;;;;;;12.10;5.95;;;-1.10;92.60;;;;;;5042301;28;20045;-68
2022/03/08 00:50:41;;;;;;;13.15;6.20;;;-1.10;92.60;;;;;;5051709;28;20033;-68
2022/03/08 00:53:07;;;;;;;15.93;6.50;;;-1.10;93.00;;;;;;5057026;28;20476;-68
2022/03/08 00:55:34;;;;;;;9.90;5.80;;;-1.10;92.70;;;;;;5059072;28;20036;-68
2022/03/08 00:58:01;;;;;;;12.02;6.22;;;-1.20;92.60;;;;;;5044103;28;20041;-68
2022/03/08 01:00:28;;;;;;;12.75;6.50;;;-1.20;92.70;;;;;;5042111;28;20185;-68
2022/03/08 01:02:54;;;;;;;10.98;6.03;;;-1.30;92.80;;;;;;5047906;28;20597;-68
2022/03/08 01:05:19;;;;;;;13.85;6.38;;;-1.30;93.00;;;;;;5046428;28;20112;-68
2022/03/08 01:07:46;;;;;;;15.18;6.93;;;-1.20;93.10;;;;;;5061623;28;20087;-68
2022/03/08 01:10:15;;;;;;;12.27;6.00;;;-1.20;93.00;;;;;;5048107;28;20130;-68
2022/03/08 01:12:42;;;;;;;12.55;6.57;;;-1.30;93.00;;;;;;5051103;28;20028;-68
2022/03/08 01:15:09;;;;;;;15.98;6.13;;;-1.30;93.50;;;;;;5037459;28;20076;-68
2022/03/08 01:17:36;;;;;;;11.30;5.97;;;-1.40;93.10;;;;;;5047834;28;20109;-68
2022/03/08 01:20:03;;;;;;;14.00;6.97;;;-1.50;93.00;;;;;;5038324;28;20120;-68
2022/03/08 01:22:29;;;;;;;11.82;6.10;;;-1.50;93.10;;;;;;5046272;28;20059;-68
2022/03/08 01:24:55;;;;;;;14.38;6.93;;;-1.60;93.20;;;;;;5047343;28;20028;-68
2022/03/08 01:27:20;;;;;;;15.02;6.50;;;-1.60;93.20;;;;;;5050857;28;20076;-68
2022/03/08 01:29:46;;;;;;;14.00;6.68;;;-1.60;93.80;;;;;;5037664;28;20033;-68
2022/03/08 01:32:11;;;;;;;12.52;6.50;;;-1.60;93.90;;;;;;5030480;28;20041;-68
2022/03/08 01:34:37;;;;;;;12.15;6.00;;;-1.60;94.80;;;;;;5053037;28;20029;-68
2022/03/08 01:37:03;;;;;;;15.45;6.88;;;-1.60;95.00;;;;;;5050017;28;20029;-68
2022/03/08 01:39:29;;;;;;;13.65;6.05;;;-1.60;94.80;;;;;;5031617;28;20123;-68
2022/03/08 01:41:55;;;;;;;11.48;5.85;;;-1.70;94.30;;;;;;5044914;28;20124;-68
2022/03/08 01:44:21;;;;;;;13.95;5.82;;;-1.70;94.30;;;;;;5039505;28;20036;-67
2022/03/08 01:46:46;;;;;;;13.43;6.32;;;-1.80;94.00;;;;;;5059557;28;20421;-68
2022/03/08 01:49:12;;;;;;;15.07;6.90;;;-1.80;93.90;;;;;;5030880;28;20049;-68
2022/03/08 01:51:39;;;;;;;14.10;6.82;;;-1.80;94.90;;;;;;5035146;28;20040;-68
2022/03/08 01:54:06;;;;;;;14.38;7.15;;;-1.80;97.30;;;;;;5040019;28;20060;-68
2022/03/08 01:56:33;;;;;;;13.95;6.57;;;-1.70;97.70;;;;;;5031130;28;20045;-67
2022/03/08 01:58:59;;;;;;;14.48;6.55;;;-1.60;96.60;;;;;;5047764;28;20067;-67
2022/03/08 02:01:25;;;;;;;16.02;7.47;;;-1.70;96.00;;;;;;5051085;28;20040;-67
2022/03/08 02:03:51;;;;;;;14.30;6.47;;;-1.80;95.50;;;;;;5047338;28;20032;-67
2022/03/08 02:06:16;;;;;;;11.20;6.28;;;-1.80;95.30;;;;;;5032192;28;20051;-68
2022/03/08 02:08:42;;;;;;;13.80;7.22;;;-1.80;95.40;;;;;;5045979;28;20091;-68
2022/03/08 02:11:07;;;;;;;18.77;7.10;;;-1.80;95.50;;;;;;5035968;28;20102;-68
2022/03/08 02:13:33;;;;;;;14.57;7.18;;;-1.90;95.30;;;;;;5037958;28;20036;-68
2022/03/08 02:15:59;;;;;;;15.63;7.22;;;-1.90;95.50;;;;;;5064323;28;20107;-67
2022/03/08 02:18:24;;;;;;;11.27;6.53;;;-1.90;95.40;;;;;;5056730;28;20544;-67
2022/03/08 02:20:50;;;;;;;12.95;6.13;;;-1.90;95.30;;;;;;5055787;28;20382;-67
2022/03/08 02:23:16;;;;;;;14.07;7.63;;;-2.00;95.60;;;;;;5060258;28;20040;-67
2022/03/08 02:25:42;;;;;;;16.38;7.35;;;-2.00;95.70;;;;;;5045277;28;20127;-68
2022/03/08 02:28:08;;;;;;;15.00;7.25;;;-2.00;95.60;;;;;;5060172;28;20067;-67
2022/03/08 02:30:34;;;;;;;16.40;7.32;;;-2.00;95.70;;;;;;5060198;28;20033;-67
2022/03/08 02:32:59;;;;;;;14.77;7.35;;;-2.00;95.70;;;;;;5033636;28;20039;-67
2022/03/08 02:35:28;;;;;;;16.83;7.03;;;-2.00;95.80;;;;;;5034250;28;20037;-67
2022/03/08 02:37:56;;;;;;;14.68;7.60;;;-2.00;95.80;;;;;;5036591;28;20475;-67
2022/03/08 02:40:25;;;;;;;16.48;7.43;;;-2.00;95.90;;;;;;5051505;28;20055;-67
2022/03/08 02:42:51;;;;;;;23.65;8.15;;;-1.90;95.90;;;;;;5043675;28;20083;-67
2022/03/08 02:45:17;;;;;;;15.85;7.72;;;-1.90;95.80;;;;;;5054168;28;20472;-67
2022/03/08 02:47:43;;;;;;;16.83;7.43;;;-1.80;96.20;;;;;;5049577;28;20097;-67
2022/03/08 02:50:11;;;;;;;13.70;7.70;;;-1.80;96.40;;;;;;5060951;28;20029;-67
2022/03/08 02:52:38;;;;;;;14.02;7.40;;;-1.70;96.50;;;;;;5046688;28;20060;-67
2022/03/08 02:55:05;;;;;;;15.50;7.20;;;-1.70;96.20;;;;;;5051329;28;20112;-68
2022/03/08 02:57:30;;;;;;;15.15;7.25;;;-1.70;96.00;;;;;;5060926;28;20068;-68
2022/03/08 02:59:56;;;;;;;17.27;8.75;;;-1.70;96.00;;;;;;5060648;28;20072;-67
2022/03/08 03:02:22;;;;;;;16.90;8.20;;;-1.70;95.90;;;;;;5048010;28;20037;-68
2022/03/08 03:04:48;;;;;;;15.02;6.90;;;-1.80;95.80;;;;;;5051034;28;20411;-67
2022/03/08 03:07:16;;;;;;;18.13;7.97;;;-1.80;96.00;;;;;;5029363;28;20040;-67
2022/03/08 03:09:42;;;;;;;15.95;7.40;;;-1.80;95.60;;;;;;5051908;28;20044;-68
2022/03/08 03:12:09;;;;;;;15.75;6.82;;;-1.80;95.60;;;;;;5055377;28;20033;-68
2022/03/08 03:14:35;;;;;;;18.08;7.30;;;-1.90;95.50;;;;;;5037991;28;20692;-67
2022/03/08 03:17:00;;;;;;;14.68;7.63;;;-1.90;95.50;;;;;;5055219;28;20552;-67
2022/03/08 03:19:26;;;;;;;15.40;7.70;;;-2.00;95.60;;;;;;5063848;28;20137;-68
2022/03/08 03:21:52;;;;;;;12.85;6.70;;;-2.00;95.70;;;;;;5038775;28;20409;-67
2022/03/08 03:24:17;;;;;;;15.10;6.70;;;-2.00;95.80;;;;;;5054602;28;20064;-67
2022/03/08 03:26:43;;;;;;;17.23;7.75;;;-2.00;95.70;;;;;;5053406;28;20033;-68
2022/03/08 03:29:09;;;;;;;15.95;7.75;;;-2.00;95.80;;;;;;5057985;28;20075;-67
2022/03/08 03:31:35;;;;;;;15.40;7.18;;;-2.10;95.90;;;;;;5049552;28;20422;-68
2022/03/08 03:34:01;;;;;;;15.55;7.15;;;-2.10;95.80;;;;;;5065467;28;20032;-68
2022/03/08 03:36:26;;;;;;;16.00;7.80;;;-2.10;96.00;;;;;;5064453;28;20122;-67
2022/03/08 03:38:53;;;;;;;15.70;6.65;;;-2.10;96.10;;;;;;5055697;28;20469;-67
2022/03/08 03:41:18;;;;;;;15.90;7.75;;;-2.20;96.00;;;;;;5051640;28;20067;-67
2022/03/08 03:43:44;;;;;;;13.93;7.55;;;-2.20;96.30;;;;;;5040717;28;20437;-68
2022/03/08 03:46:11;;;;;;;17.67;7.22;;;-2.10;96.80;;;;;;5051401;28;20124;-67
2022/03/08 03:48:36;;;;;;;13.90;6.82;;;-2.20;96.80;;;;;;5052607;28;20086;-67
2022/03/08 03:51:02;;;;;;;20.48;7.45;;;-2.20;96.20;;;;;;5062287;28;20048;-67
2022/03/08 03:53:28;;;;;;;15.75;7.93;;;-2.30;96.10;;;;;;5054502;28;20033;-67
2022/03/08 03:55:53;;;;;;;15.13;7.32;;;-2.30;96.10;;;;;;5050720;28;20498;-67
2022/03/08 03:58:19;;;;;;;17.75;7.90;;;-2.30;96.10;;;;;;5056105;28;20071;-67
2022/03/08 04:00:45;;;;;;;17.35;7.82;;;-2.30;96.20;;;;;;5060898;28;20140;-67
2022/03/08 04:03:10;;;;;;;16.15;7.60;;;-2.30;96.40;;;;;;5049028;28;20571;-67
2022/03/08 04:05:36;;;;;;;18.85;7.70;;;-2.30;96.30;;;;;;5053653;28;20105;-67
2022/03/08 04:08:01;;;;;;;17.45;8.68;;;-2.30;96.50;;;;;;5039696;28;20135;-68
2022/03/08 04:10:27;;;;;;;18.10;9.45;;;-2.30;96.60;;;;;;5062884;28;20124;-68
2022/03/08 04:12:53;;;;;;;16.60;7.88;;;-2.30;96.50;;;;;;5057376;28;20037;-67
2022/03/08 04:15:18;;;;;;;20.13;8.93;;;-2.30;96.60;;;;;;5042637;28;20481;-68
2022/03/08 04:17:44;;;;;;;19.38;8.65;;;-2.30;96.60;;;;;;5047812;28;20466;-67
2022/03/08 04:20:10;;;;;;;18.45;7.70;;;-2.30;96.60;;;;;;5056914;28;20063;-67
2022/03/08 04:22:36;;;;;;;18.45;7.60;;;-2.40;96.60;;;;;;5049802;28;20036;-67
2022/03/08 04:25:04;;;;;;;18.80;8.30;;;-2.40;96.70;;;;;;5059494;28;20097;-68
2022/03/08 04:27:29;;;;;;;18.63;9.32;;;-2.40;97.60;;;;;;5066228;28;20041;-68
2022/03/08 04:29:55;;;;;;;17.77;8.60;;;-2.40;97.80;;;;;;5064062;28;20041;-67
2022/03/08 04:32:20;;;;;;;18.27;7.75;;;-2.40;97.50;;;;;;5067048;28;20115;-67
2022/03/08 04:34:46;;;;;;;19.77;8.98;;;-2.40;97.20;;;;;;5059514;28;20043;-67
2022/03/08 04:37:12;;;;;;;15.55;7.93;;;-2.40;97.10;;;;;;5047036;28;20164;-67
2022/03/08 04:39:37;;;;;;;17.48;8.02;;;-2.50;97.10;;;;;;5049031;28;21076;-67
2022/03/08 04:42:04;;;;;;;17.65;8.10;;;-2.50;97.10;;;;;;5056176;28;20028;-67
2022/03/08 04:44:29;;;;;;;16.63;7.45;;;-2.50;97.10;;;;;;5051829;28;20078;-67
2022/03/08 04:46:55;;;;;;;19.63;8.70;;;-2.50;97.00;;;;;;5054216;28;20037;-67
2022/03/08 04:49:20;;;;;;;13.75;7.65;;;-2.50;97.10;;;;;;5032366;28;20029;-67
2022/03/08 04:51:46;;;;;;;19.83;8.18;;;-2.60;97.00;;;;;;5031413;28;20037;-68
2022/03/08 04:54:12;;;;;;;17.88;8.60;;;-2.60;97.10;;;;;;5058951;28;20079;-67
2022/03/08 04:56:37;;;;;;;18.42;9.00;;;-2.60;97.30;;;;;;5049520;28;20054;-68
2022/03/08 04:59:04;;;;;;;16.75;8.27;;;-2.60;97.60;;;;;;5051582;28;20481;-67
2022/03/08 05:01:30;;;;;;;18.38;8.55;;;-2.60;97.90;;;;;;5046542;28;20033;-67
2022/03/08 05:03:56;;;;;;;20.50;8.70;;;-2.60;97.80;;;;;;5034939;28;20062;-67
2022/03/08 05:06:21;;;;;;;19.63;9.13;;;-2.60;97.60;;;;;;5057929;28;20556;-68
2022/03/08 05:08:47;;;;;;;17.60;8.85;;;-2.60;98.30;;;;;;5047082;28;20048;-68
2022/03/08 05:11:13;;;;;;;22.65;8.93;;;-2.60;97.90;;;;;;5038614;28;20044;-67
2022/03/08 05:13:39;;;;;;;17.35;8.15;;;-2.60;97.70;;;;;;5039273;28;20036;-68
2022/03/08 05:16:05;;;;;;;19.67;8.95;;;-2.70;97.50;;;;;;5037945;28;20072;-67
2022/03/08 05:18:31;;;;;;;18.73;8.43;;;-2.70;97.70;;;;;;5034519;28;20049;-67
2022/03/08 05:20:57;;;;;;;21.58;9.52;;;-2.70;97.80;;;;;;5046990;28;20403;-67
2022/03/08 05:23:23;;;;;;;21.08;9.05;;;-2.80;97.80;;;;;;5051092;28;20048;-67
2022/03/08 05:25:48;;;;;;;22.15;9.90;;;-2.80;98.10;;;;;;5038174;28;20040;-67
2022/03/08 05:28:14;;;;;;;18.15;8.93;;;-2.80;98.30;;;;;;5047605;28;20057;-68
2022/03/08 05:30:40;;;;;;;20.25;8.82;;;-2.70;98.80;;;;;;5067303;28;20029;-67
2022/03/08 05:33:06;;;;;;;21.80;9.88;;;-2.70;98.80;;;;;;5031944;28;20045;-67
2022/03/08 05:35:31;;;;;;;21.23;8.55;;;-2.70;98.40;;;;;;5049153;28;20033;-67
2022/03/08 05:37:57;;;;;;;20.73;8.93;;;-2.70;98.30;;;;;;5044024;28;20393;-67
2022/03/08 05:40:23;;;;;;;19.55;8.63;;;-2.70;98.40;;;;;;5047015;28;20040;-67
2022/03/08 05:42:48;;;;;;;21.38;9.80;;;-2.70;98.50;;;;;;5048994;28;20554;-67
2022/03/08 05:45:15;;;;;;;18.77;9.50;;;-2.70;98.60;;;;;;5052666;28;20068;-67
2022/03/08 05:47:41;;;;;;;20.95;8.90;;;-2.70;98.50;;;;;;5051965;28;20041;-67
2022/03/08 05:50:08;;;;;;;21.90;10.13;;;-2.70;98.60;;;;;;5040781;28;22459;-67
2022/03/08 05:52:33;;;;;;;24.60;10.02;;;-2.70;98.70;;;;;;5060667;28;20129;-67
2022/03/08 05:54:59;;;;;;;22.60;9.85;;;-2.70;98.60;;;;;;5050561;28;20048;-66
2022/03/08 05:57:25;;;;;;;21.33;10.80;;;-2.70;98.60;;;;;;5053278;28;20146;-67
2022/03/08 05:59:50;;;;;;;20.05;9.38;;;-2.70;98.70;;;;;;5050578;28;20086;-67
2022/03/08 06:02:17;;;;;;;24.83;11.25;;;-2.70;98.60;;;;;;5035536;28;20049;-67
2022/03/08 06:04:42;;;;;;;21.38;9.13;;;-2.70;98.90;;;;;;5055693;28;20037;-67
2022/03/08 06:07:08;;;;;;;22.75;10.75;;;-2.60;98.80;;;;;;5055926;28;20045;-67
2022/03/08 06:09:34;;;;;;;23.45;9.93;;;-2.60;98.80;;;;;;5070333;28;20052;-67
2022/03/08 06:12:00;;;;;;;25.52;10.68;;;-2.60;98.90;;;;;;5049579;28;20044;-67
2022/03/08 06:14:27;;;;;;;24.52;11.07;;;-2.60;98.90;;;;;;5051998;28;20380;-67
2022/03/08 06:16:53;;;;;;;26.48;11.82;;;-2.60;98.90;;;;;;5036039;28;20052;-67
2022/03/08 06:19:19;;;;;;;27.27;11.93;;;-2.60;99.10;;;;;;5055676;28;20040;-67
2022/03/08 06:21:44;;;;;;;25.52;10.68;;;-2.60;99.20;;;;;;5050237;28;20037;-67
2022/03/08 06:24:11;;;;;;;25.58;11.43;;;-2.60;99.40;;;;;;5054416;28;20314;-67
2022/03/08 06:26:38;;;;;;;27.55;11.80;;;-2.50;99.30;;;;;;5052359;28;20705;-67
2022/03/08 06:29:04;;;;;;;19.88;9.85;;;-2.40;99.30;;;;;;5054916;28;20061;-67
2022/03/08 06:31:30;;;;;;;27.27;11.93;;;-2.40;99.20;;;;;;5063961;28;20138;-67
2022/03/08 06:33:55;;;;;;;30.70;12.55;;;-2.30;99.40;;;;;;5062856;28;20215;-67
2022/03/08 06:36:21;;;;;;;24.75;12.02;;;-2.30;99.20;;;;;;5053490;28;20091;-67
2022/03/08 06:38:46;;;;;;;25.83;12.27;;;-2.20;99.30;;;;;;5058050;28;20113;-66
2022/03/08 06:41:12;;;;;;;26.77;10.85;;;-2.10;99.50;;;;;;5051068;28;20057;-67
2022/03/08 06:43:39;;;;;;;26.63;12.65;;;-2.00;99.70;;;;;;5059670;28;20032;-67
2022/03/08 06:46:05;;;;;;;22.42;11.25;;;-1.80;99.90;;;;;;5057083;28;20049;-67
2022/03/08 06:48:30;;;;;;;30.23;12.05;;;-1.70;99.90;;;;;;5052311;28;20882;-67
2022/03/08 06:50:56;;;;;;;32.80;12.68;;;-1.50;99.90;;;;;;5049977;28;20116;-67
2022/03/08 06:53:22;;;;;;;26.88;12.57;;;-1.20;99.90;;;;;;5061196;28;20092;-67
2022/03/08 06:55:47;;;;;;;26.98;12.88;;;-1.00;99.90;;;;;;5037986;28;20537;-67
2022/03/08 06:58:13;;;;;;;22.83;11.30;;;-0.80;99.80;;;;;;5053828;28;20081;-67
2022/03/08 07:00:38;;;;;;;25.00;12.00;;;-0.70;99.50;;;;;;5042022;28;20040;-67
2022/03/08 07:03:04;;;;;;;24.60;11.65;;;-0.50;99.20;;;;;;5056291;28;20040;-67
2022/03/08 07:05:30;;;;;;;26.45;12.80;;;-0.30;99.10;;;;;;5048899;28;20048;-69
2022/03/08 07:07:55;;;;;;;25.83;12.50;;;-0.10;98.50;;;;;;5072328;28;20080;-67
2022/03/08 07:10:21;;;;;;;24.77;11.98;;;0.10;98.10;;;;;;5033816;28;20037;-68
2022/03/08 07:12:47;;;;;;;23.05;11.65;;;0.30;97.90;;;;;;5058068;28;20116;-67
2022/03/08 07:15:14;;;;;;;22.58;11.98;;;0.60;97.30;;;;;;5063975;28;20043;-67
2022/03/08 07:17:43;;;;;;;20.70;10.50;;;0.90;96.90;;;;;;5056864;28;20097;-67
2022/03/08 07:20:10;;;;;;;23.60;12.10;;;1.30;96.50;;;;;;5055175;28;20049;-68
2022/03/08 07:22:36;;;;;;;21.73;11.32;;;1.60;95.30;;;;;;5035274;28;20091;-68
2022/03/08 07:25:02;;;;;;;21.85;11.20;;;2.00;94.80;;;;;;5060570;28;20170;-68
2022/03/08 07:27:28;;;;;;;21.08;11.25;;;2.40;95.00;;;;;;5047885;28;20140;-68
2022/03/08 07:29:53;;;;;;;18.85;9.98;;;2.70;93.90;;;;;;5051101;28;20142;-68
2022/03/08 07:32:19;;;;;;;20.92;11.55;;;3.10;92.60;;;;;;5062955;28;20065;-70
2022/03/08 07:34:45;;;;;;;19.52;11.23;;;3.30;91.80;;;;;;5045146;28;20037;-70
2022/03/08 07:37:10;;;;;;;21.70;11.40;;;3.60;91.90;;;;;;5038013;28;20044;-71
2022/03/08 07:39:36;;;;;;;17.65;10.45;;;3.80;91.40;;;;;;5034903;28;20041;-71
2022/03/08 07:42:02;;;;;;;18.27;10.65;;;4.10;91.10;;;;;;5056034;28;20036;-71
2022/03/08 07:44:28;;;;;;;18.85;11.05;;;4.20;90.40;;;;;;5052524;28;20540;-70
2022/03/08 07:46:55;;;;;;;18.05;11.60;;;4.40;90.30;;;;;;5040730;28;20063;-70
2022/03/08 07:49:21;;;;;;;19.60;11.30;;;4.50;87.80;;;;;;5059390;28;20135;-71
2022/03/08 07:51:47;;;;;;;16.42;10.90;;;4.60;86.80;;;;;;5063710;28;20074;-71
2022/03/08 07:54:13;;;;;;;20.52;11.45;;;4.60;87.90;;;;;;5044933;28;20071;-70
2022/03/08 07:56:39;;;;;;;19.75;11.18;;;4.50;87.20;;;;;;5056792;28;20183;-70
2022/03/08 07:59:05;;;;;;;17.13;10.68;;;4.40;85.30;;;;;;5040103;28;20135;-73
2022/03/08 08:01:30;;;;;;;17.15;10.35;;;4.30;86.50;;;;;;5036559;28;20104;-70
2022/03/08 08:03:56;;;;;;;18.55;10.18;;;4.20;84.80;;;;;;5059679;28;20383;-70
2022/03/08 08:06:21;;;;;;;18.02;10.98;;;4.20;85.20;;;;;;5049451;28;20056;-71
2022/03/08 08:08:47;;;;;;;19.83;11.55;;;4.20;84.70;;;;;;5064053;28;20037;-70
2022/03/08 08:11:13;;;;;;;17.70;10.15;;;4.30;84.10;;;;;;5050848;28;20119;-71
2022/03/08 08:13:38;;;;;;;15.90;9.75;;;4.40;84.30;;;;;;5055029;28;20033;-71
2022/03/08 08:16:04;;;;;;;22.27;10.90;;;4.60;83.20;;;;;;5038779;28;20483;-70
2022/03/08 08:18:30;;;;;;;17.58;10.57;;;4.70;83.00;;;;;;5051655;28;20050;-72
2022/03/08 08:20:55;;;;;;;17.42;10.50;;;4.70;82.10;;;;;;5046555;28;20536;-71
2022/03/08 08:23:21;;;;;;;16.50;10.52;;;4.70;82.10;;;;;;5060445;28;20420;-71
2022/03/08 08:25:46;;;;;;;15.73;10.32;;;4.70;80.60;;;;;;5056500;28;20102;-70
2022/03/08 08:28:12;;;;;;;19.67;10.93;;;4.70;81.20;;;;;;5035327;28;20943;-71
2022/03/08 08:30:38;;;;;;;17.67;10.10;;;4.70;82.30;;;;;;5058773;28;20043;-70
2022/03/08 08:33:03;;;;;;;17.23;10.45;;;4.70;81.60;;;;;;5059136;28;20116;-74
2022/03/08 08:35:30;;;;;;;16.02;9.93;;;4.80;81.10;;;;;;5059019;28;20219;-67
2022/03/08 08:37:55;;;;;;;16.50;8.85;;;4.80;78.70;;;;;;5047814;28;20041;-71
2022/03/08 08:40:21;;;;;;;17.02;10.02;;;4.80;78.30;;;;;;5048557;28;20047;-70
2022/03/08 08:42:46;;;;;;;16.73;9.15;;;4.80;76.40;;;;;;5057539;28;20115;-70
2022/03/08 08:45:13;;;;;;;16.17;9.23;;;4.90;76.40;;;;;;5062276;28;20148;-70
2022/03/08 08:47:39;;;;;;;14.98;9.30;;;4.90;75.90;;;;;;5057379;28;20041;-71
2022/03/08 08:50:05;;;;;;;16.42;9.45;;;4.90;75.40;;;;;;5045725;28;20044;-70
2022/03/08 08:52:30;;;;;;;20.45;9.43;;;5.10;75.30;;;;;;5057953;28;20495;-71
2022/03/08 08:54:57;;;;;;;18.33;9.90;;;5.10;75.30;;;;;;5062384;28;20041;-70
2022/03/08 08:57:22;;;;;;;16.02;8.95;;;5.20;74.70;;;;;;5046578;28;20418;-70
2022/03/08 08:59:48;;;;;;;15.45;9.57;;;5.30;72.80;;;;;;5064545;28;20124;-70
2022/03/08 09:02:13;;;;;;;13.85;8.85;;;5.40;72.30;;;;;;5042777;28;20128;-69
2022/03/08 09:04:39;;;;;;;15.93;9.65;;;5.50;73.00;;;;;;5062708;28;20049;-70
2022/03/08 09:07:05;;;;;;;15.07;9.50;;;5.70;72.10;;;;;;5039294;28;20045;-70
2022/03/08 09:09:31;;;;;;;21.08;9.90;;;5.70;72.10;;;;;;5049522;28;20155;-71
2022/03/08 09:11:57;;;;;;;15.25;8.77;;;5.80;72.50;;;;;;5040692;28;20041;-70
2022/03/08 09:14:22;;;;;;;15.95;9.73;;;5.80;72.60;;;;;;5050109;28;20064;-70
2022/03/08 09:16:48;;;;;;;18.60;10.52;;;6.00;73.20;;;;;;5046150;28;20075;-69
2022/03/08 09:19:13;;;;;;;17.42;9.45;;;6.10;73.20;;;;;;5032207;28;20056;-70
2022/03/08 09:21:39;;;;;;;15.57;9.55;;;6.10;70.70;;;;;;5048704;28;20051;-70
2022/03/08 09:24:05;;;;;;;18.33;9.57;;;6.20;70.60;;;;;;5065024;28;20037;-70
2022/03/08 09:26:31;;;;;;;17.65;9.52;;;6.30;70.40;;;;;;5030068;28;20093;-71
2022/03/08 09:28:56;;;;;;;15.63;9.25;;;6.40;69.80;;;;;;5053234;28;20174;-69
2022/03/08 09:31:22;;;;;;;17.88;9.35;;;6.40;69.60;;;;;;5039713;28;20134;-70
2022/03/08 09:33:48;;;;;;;15.07;9.20;;;6.50;69.90;;;;;;5047693;28;20479;-68
2022/03/08 09:36:13;;;;;;;14.02;8.60;;;6.60;70.10;;;;;;5049704;28;20048;-68
2022/03/08 09:38:39;;;;;;;15.43;9.25;;;6.60;69.50;;;;;;5049128;28;20466;-68
2022/03/08 09:41:05;;;;;;;14.90;8.93;;;6.70;68.90;;;;;;5048029;28;20118;-68
2022/03/08 09:43:35;;;;;;;15.90;10.25;;;6.70;68.10;;;;;;5050349;28;20103;-68
2022/03/08 09:46:01;;;;;;;;;;;6.80;67.20;;;;;;5051137;28;20072;-71
2022/03/08 09:48:28;;;;;;;11.85;7.82;;;6.90;65.40;;;;;;5050921;28;20361;-68
2022/03/08 09:50:53;;;;;;;11.68;7.55;;;6.90;66.00;;;;;;5050464;28;20095;-67
2022/03/08 09:53:19;;;;;;;11.70;7.65;;;6.90;64.90;;;;;;5050528;28;20079;-68
2022/03/08 09:55:45;;;;;;;12.35;7.75;;;7.00;65.80;;;;;;5047477;28;20043;-68
2022/03/08 09:58:10;;;;;;;13.27;8.15;;;7.20;64.30;;;;;;5061354;28;20388;-68
2022/03/08 10:00:36;;;;;;;10.77;7.07;;;7.10;64.60;;;;;;5038097;28;20036;-69
2022/03/08 10:03:08;;;;;;;14.45;7.07;;;7.20;64.30;;;;;;5061285;28;20036;-73
2022/03/08 10:05:39;;;;;;;12.32;6.55;;;7.10;60.90;;;;;;5044261;28;20037;-67
2022/03/08 10:08:19;;;;;;;11.50;6.80;;;7.10;61.80;;;;;;5055645;28;20085;-69
2022/03/08 10:11:01;;;;;;;8.97;5.93;;;7.30;60.00;;;;;;5062205;28;20056;-69
2022/03/08 10:13:38;;;;;;;13.95;7.25;;;7.30;59.60;;;;;;5047661;28;20063;-68
2022/03/08 10:16:28;;;;;;;10.40;6.65;;;7.30;60.80;;;;;;5050879;28;20116;-68
2022/03/08 10:18:59;;;;;;;11.07;7.43;;;7.30;59.60;;;;;;5060035;28;20128;-67
2022/03/08 10:21:39;;;;;;;10.63;6.50;;;7.40;61.30;;;;;;5055125;28;20124;-70
2022/03/08 10:24:05;;;;;;;10.88;7.03;;;7.40;59.40;;;;;;5047485;28;20137;-68
2022/03/08 10:26:41;;;;;;;9.15;5.95;;;7.40;60.10;;;;;;5050778;28;20131;-68
2022/03/08 10:29:07;;;;;;;9.70;6.13;;;7.50;58.80;;;;;;5062136;28;20044;-68
2022/03/08 10:31:32;;;;;;;10.32;6.93;;;7.50;60.50;;;;;;5052929;28;20040;-67
2022/03/08 10:34:04;;;;;;;11.45;6.53;;;7.70;61.30;;;;;;5051975;28;20073;-68
2022/03/08 10:36:31;;;;;;;11.07;6.60;;;7.90;60.70;;;;;;5052356;28;20083;-67
2022/03/08 10:39:08;;;;;;;10.25;7.10;;;8.00;60.20;;;;;;5049872;28;20072;-69
2022/03/08 10:41:39;;;;;;;12.05;6.28;;;8.10;59.30;;;;;;5051289;28;20136;-68
2022/03/08 10:44:05;;;;;;;9.88;6.53;;;8.10;59.40;;;;;;5056717;28;20048;-71
2022/03/08 10:46:30;;;;;;;12.85;6.72;;;8.10;57.90;;;;;;5052952;28;20488;-71
2022/03/08 10:48:56;;;;;;;9.85;6.50;;;8.00;58.30;;;;;;5051213;28;20048;-67
2022/03/08 10:51:22;;;;;;;12.60;6.05;;;8.10;57.70;;;;;;5035755;28;20043;-69
2022/03/08 10:53:48;;;;;;;8.32;5.63;;;8.10;58.30;;;;;;5049489;28;20029;-70
2022/03/08 10:56:26;;;;;;;9.60;6.28;;;8.20;57.30;;;;;;5048598;28;20041;-68
2022/03/08 10:58:52;;;;;;;10.55;6.40;;;8.20;58.00;;;;;;5063215;28;20079;-67
2022/03/08 11:01:19;;;;;;;10.02;6.10;;;8.10;54.60;;;;;;5052739;28;20064;-67
2022/03/08 11:03:58;;;;;;;11.52;6.35;;;8.10;56.20;;;;;;5053235;28;20033;-71
2022/03/08 11:06:25;;;;;;;9.52;5.43;;;8.10;54.90;;;;;;5058247;28;20106;-72
2022/03/08 11:08:52;;;;;;;10.68;6.13;;;8.20;54.70;;;;;;5049732;28;20408;-68
2022/03/08 11:11:20;;;;;;;8.57;5.53;;;8.20;55.60;;;;;;5070747;28;20044;-71
2022/03/08 11:13:50;;;;;;;8.63;6.10;;;8.30;54.40;;;;;;5044953;28;20044;-68
2022/03/08 11:16:18;;;;;;;9.15;5.93;;;8.30;54.30;;;;;;5039647;28;20060;-68
2022/03/08 11:18:48;;;;;;;10.35;4.97;;;8.40;55.00;;;;;;5051210;28;20127;-68
2022/03/08 11:21:15;;;;;;;8.80;5.20;;;8.50;55.80;;;;;;5045969;28;20108;-67
2022/03/08 11:23:42;;;;;;;8.52;4.72;;;8.50;52.60;;;;;;5053326;28;20037;-68
2022/03/08 11:26:11;;;;;;;7.93;4.72;;;8.50;52.90;;;;;;5060646;28;20041;-69
2022/03/08 11:28:38;;;;;;;8.03;5.03;;;8.60;52.20;;;;;;5062654;28;20041;-71
2022/03/08 11:31:04;;;;;;;7.00;3.85;;;8.70;52.10;;;;;;5054554;28;20592;-67
2022/03/08 11:33:40;;;;;;;7.20;4.32;;;8.70;52.10;;;;;;5064212;28;20043;-68
2022/03/08 11:36:35;;;;;;;6.53;4.18;;;8.70;51.00;;;;;;5055284;28;20067;-67
2022/03/08 11:39:21;;;;;;;7.70;4.07;;;8.70;50.30;;;;;;5066150;28;20491;-66
2022/03/08 11:41:53;;;;;;;6.30;4.32;;;8.80;49.00;;;;;;5065371;28;20128;-68
2022/03/08 11:44:31;;;;;;;5.57;4.15;;;8.70;50.30;;;;;;5043599;28;20045;-69
2022/03/08 11:47:01;;;;;;;8.90;4.78;;;8.80;49.50;;;;;;5057864;28;20720;-68
2022/03/08 11:49:40;;;;;;;9.10;4.40;;;8.70;49.60;;;;;;5059495;28;20071;-69
2022/03/08 11:52:11;;;;;;;8.32;4.35;;;8.70;50.00;;;;;;5050662;28;20106;-67
2022/03/08 11:54:37;;;;;;;8.15;4.13;;;8.90;51.70;;;;;;5057812;28;20039;-68
2022/03/08 11:57:03;;;;;;;6.95;3.95;;;9.00;50.90;;;;;;5034792;28;20037;-68
2022/03/08 11:59:28;;;;;;;8.38;4.32;;;9.10;51.00;;;;;;5066078;28;20093;-68
2022/03/08 12:01:55;;;;;;;6.50;4.15;;;9.10;50.30;;;;;;5063705;28;20048;-68
2022/03/08 12:04:20;;;;;;;7.80;4.13;;;9.20;50.90;;;;;;5051652;28;20123;-70
2022/03/08 12:06:53;;;;;;;7.25;4.50;;;9.30;51.10;;;;;;5060717;28;20048;-67
2022/03/08 12:09:21;;;;;;;7.13;4.75;;;9.30;52.10;;;;;;5065503;28;20056;-70
2022/03/08 12:11:59;;;;;;;6.30;4.30;;;9.40;50.40;;;;;;5059168;28;20037;-69
2022/03/08 12:14:37;;;;;;;7.30;3.90;;;9.40;49.10;;;;;;5053437;28;20111;-68
2022/03/08 12:17:06;;;;;;;5.78;3.58;;;9.30;47.90;;;;;;5061999;28;20041;-69
2022/03/08 12:19:32;;;;;;;5.43;4.10;;;9.40;50.40;;;;;;5048875;28;20496;-68
2022/03/08 12:21:58;;;;;;;9.05;4.30;;;9.40;49.80;;;;;;5064098;28;20044;-67
2022/03/08 12:24:25;;;;;;;8.77;4.35;;;9.40;50.00;;;;;;5051687;28;20043;-67
2022/03/08 12:27:02;;;;;;;7.72;4.95;;;9.40;49.60;;;;;;5056740;28;20590;-68
2022/03/08 12:29:55;;;;;;;6.53;4.43;;;9.50;49.20;;;;;;5064359;28;20067;-69
2022/03/08 12:32:25;;;;;;;6.85;4.80;;;9.50;47.60;;;;;;5043007;28;20076;-67
2022/03/08 12:34:52;;;;;;;;;;;9.50;48.70;;;;;;5065769;28;20140;-67
2022/03/08 12:37:41;;;;;;;6.47;4.57;;;9.60;47.80;;;;;;5045572;28;20317;-68
2022/03/08 12:40:17;;;;;;;6.45;4.32;;;9.60;49.50;;;;;;5059915;28;20033;-67